sensor_id;sensor_type;location;lat;lon;timestamp;pressure;altitude;pressure_sealevel;temperature;humidity
71384;BME280;67558;52.166;5.004;2023-04-04T00:01:18;103188.28;;;4.77;52.16
71384;BME280;67558;52.166;5.004;2023-04-04T00:03:43;103179.50;;;4.68;52.01
71384;BME280;67558;52.166;5.004;2023-04-04T00:06:08;103181.50;;;4.74;52.28
71384;BME280;67558;52.166;5.004;2023-04-04T00:08:34;103176.69;;;4.69;51.97
71384;BME280;67558;52.166;5.004;2023-04-04T00:10:59;103183.81;;;4.69;52.19
71384;BME280;67558;52.166;5.004;2023-04-04T00:13:25;103182.16;;;4.68;52.46
71384;BME280;67558;52.166;5.004;2023-04-04T00:15:51;103182.97;;;4.68;52.30
71384;BME280;67558;52.166;5.004;2023-04-04T00:18:17;103168.09;;;4.67;52.60
71384;BME280;67558;52.166;5.004;2023-04-04T00:20:42;103172.88;;;4.64;52.56
71384;BME280;67558;52.166;5.004;2023-04-04T00:23:08;103167.78;;;4.54;52.75
71384;BME280;67558;52.166;5.004;2023-04-04T00:28:56;103158.00;;;4.46;52.99
71384;BME280;67558;52.166;5.004;2023-04-04T00:31:22;103160.63;;;4.46;52.91
71384;BME280;67558;52.166;5.004;2023-04-04T00:33:47;103145.56;;;4.39;52.80
71384;BME280;67558;52.166;5.004;2023-04-04T00:36:13;103148.06;;;4.40;52.94
71384;BME280;67558;52.166;5.004;2023-04-04T00:38:38;103159.31;;;4.42;53.01
71384;BME280;67558;52.166;5.004;2023-04-04T00:41:03;103151.03;;;4.37;53.28
71384;BME280;67558;52.166;5.004;2023-04-04T00:43:30;103137.63;;;4.30;53.19
71384;BME280;67558;52.166;5.004;2023-04-04T00:45:55;103146.56;;;4.29;53.29
71384;BME280;67558;52.166;5.004;2023-04-04T00:48:21;103156.69;;;4.26;53.60
71384;BME280;67558;52.166;5.004;2023-04-04T00:50:49;103157.50;;;4.26;53.48
71384;BME280;67558;52.166;5.004;2023-04-04T00:53:14;103156.69;;;4.26;53.66
71384;BME280;67558;52.166;5.004;2023-04-04T00:55:40;103157.66;;;4.25;53.62
71384;BME280;67558;52.166;5.004;2023-04-04T00:58:07;103152.72;;;4.22;53.51
71384;BME280;67558;52.166;5.004;2023-04-04T01:00:34;103141.28;;;4.13;54.05
71384;BME280;67558;52.166;5.004;2023-04-04T01:03:00;103149.22;;;4.13;53.86
71384;BME280;67558;52.166;5.004;2023-04-04T01:05:25;103151.69;;;4.06;54.03
71384;BME280;67558;52.166;5.004;2023-04-04T01:07:51;103154.66;;;4.03;54.04
71384;BME280;67558;52.166;5.004;2023-04-04T01:10:16;103134.13;;;3.97;54.16
71384;BME280;67558;52.166;5.004;2023-04-04T01:12:42;103142.75;;;3.99;54.73
71384;BME280;67558;52.166;5.004;2023-04-04T01:15:07;103154.34;;;3.98;54.65
71384;BME280;67558;52.166;5.004;2023-04-04T01:17:33;103148.69;;;3.93;54.74
71384;BME280;67558;52.166;5.004;2023-04-04T01:20:17;103139.59;;;3.87;55.52
71384;BME280;67558;52.166;5.004;2023-04-04T01:22:46;103144.03;;;3.87;54.79
71384;BME280;67558;52.166;5.004;2023-04-04T01:25:13;103144.03;;;3.87;55.19
71384;BME280;67558;52.166;5.004;2023-04-04T01:27:40;103131.63;;;3.79;54.88
71384;BME280;67558;52.166;5.004;2023-04-04T01:30:06;103150.00;;;3.81;54.98
71384;BME280;67558;52.166;5.004;2023-04-04T01:32:35;103140.88;;;3.75;55.11
71384;BME280;67558;52.166;5.004;2023-04-04T01:35:35;103148.66;;;3.68;55.42
71384;BME280;67558;52.166;5.004;2023-04-04T01:38:17;103147.31;;;3.64;55.69
71384;BME280;67558;52.166;5.004;2023-04-04T01:40:48;103152.28;;;3.59;55.93
71384;BME280;67558;52.166;5.004;2023-04-04T01:43:13;103143.66;;;3.57;55.66
71384;BME280;67558;52.166;5.004;2023-04-04T01:45:39;103149.78;;;3.58;55.53
71384;BME280;67558;52.166;5.004;2023-04-04T01:48:05;103139.50;;;3.55;55.99
71384;BME280;67558;52.166;5.004;2023-04-04T01:50:30;103143.63;;;3.49;55.75
71384;BME280;67558;52.166;5.004;2023-04-04T01:52:56;103149.09;;;3.47;55.71
71384;BME280;67558;52.166;5.004;2023-04-04T01:55:21;103141.78;;;3.41;56.04
71384;BME280;67558;52.166;5.004;2023-04-04T01:57:46;103089.25;;;3.04;56.08
71384;BME280;67558;52.166;5.004;2023-04-04T02:00:12;103143.41;;;3.34;56.13
71384;BME280;67558;52.166;5.004;2023-04-04T02:02:38;103134.47;;;3.27;56.44
71384;BME280;67558;52.166;5.004;2023-04-04T02:05:03;103134.63;;;3.25;55.94
71384;BME280;67558;52.166;5.004;2023-04-04T02:07:29;103146.84;;;3.26;56.44
71384;BME280;67558;52.166;5.004;2023-04-04T02:09:54;103136.06;;;3.20;56.69
71384;BME280;67558;52.166;5.004;2023-04-04T02:12:19;103152.13;;;3.26;56.27
71384;BME280;67558;52.166;5.004;2023-04-04T02:14:46;103137.25;;;3.25;56.36
71384;BME280;67558;52.166;5.004;2023-04-04T02:17:11;103155.78;;;3.25;56.99
71384;BME280;67558;52.166;5.004;2023-04-04T02:19:37;103157.09;;;3.21;56.60
71384;BME280;67558;52.166;5.004;2023-04-04T02:22:02;103154.44;;;3.21;56.54
71384;BME280;67558;52.166;5.004;2023-04-04T02:24:27;103156.41;;;3.19;56.29
71384;BME280;67558;52.166;5.004;2023-04-04T02:26:53;103158.06;;;3.20;56.82
71384;BME280;67558;52.166;5.004;2023-04-04T02:29:18;103153.91;;;3.18;56.65
71384;BME280;67558;52.166;5.004;2023-04-04T02:31:43;103159.00;;;3.11;56.38
71384;BME280;67558;52.166;5.004;2023-04-04T02:34:09;103154.88;;;3.08;56.53
71384;BME280;67558;52.166;5.004;2023-04-04T02:36:34;103135.16;;;2.95;56.89
71384;BME280;67558;52.166;5.004;2023-04-04T02:39:00;103146.91;;;3.00;57.04
71384;BME280;67558;52.166;5.004;2023-04-04T02:41:26;103148.19;;;2.96;57.53
71384;BME280;67558;52.166;5.004;2023-04-04T02:43:52;103140.59;;;2.93;56.95
71384;BME280;67558;52.166;5.004;2023-04-04T02:46:17;103144.72;;;2.96;57.23
71384;BME280;67558;52.166;5.004;2023-04-04T02:48:43;103138.75;;;2.94;57.46
71384;BME280;67558;52.166;5.004;2023-04-04T02:51:08;103125.19;;;2.89;57.28
71384;BME280;67558;52.166;5.004;2023-04-04T02:53:34;103132.47;;;2.86;57.31
71384;BME280;67558;52.166;5.004;2023-04-04T02:56:01;103131.72;;;2.76;57.69
71384;BME280;67558;52.166;5.004;2023-04-04T02:58:28;103120.28;;;2.67;57.17
71384;BME280;67558;52.166;5.004;2023-04-04T03:00:54;103119.75;;;2.64;57.75
71384;BME280;67558;52.166;5.004;2023-04-04T03:03:19;103101.66;;;2.51;58.20
71384;BME280;67558;52.166;5.004;2023-04-04T03:05:45;103122.41;;;2.64;58.09
71384;BME280;67558;52.166;5.004;2023-04-04T03:08:11;103123.53;;;2.61;57.76
71384;BME280;67558;52.166;5.004;2023-04-04T03:10:36;103120.75;;;2.63;57.71
71384;BME280;67558;52.166;5.004;2023-04-04T03:13:02;103116.75;;;2.59;57.94
71384;BME280;67558;52.166;5.004;2023-04-04T03:15:27;103128.97;;;2.60;58.52
71384;BME280;67558;52.166;5.004;2023-04-04T03:17:53;103088.50;;;2.33;58.16
71384;BME280;67558;52.166;5.004;2023-04-04T03:20:18;103120.75;;;2.63;58.15
71384;BME280;67558;52.166;5.004;2023-04-04T03:22:44;103117.63;;;2.67;57.92
71384;BME280;67558;52.166;5.004;2023-04-04T03:25:09;103125.56;;;2.67;58.16
71384;BME280;67558;52.166;5.004;2023-04-04T03:27:34;103126.91;;;2.72;58.11
71384;BME280;67558;52.166;5.004;2023-04-04T03:30:00;103134.38;;;2.76;57.79
71384;BME280;67558;52.166;5.004;2023-04-04T03:32:26;103121.31;;;2.75;58.00
71384;BME280;67558;52.166;5.004;2023-04-04T03:34:51;103119.34;;;2.77;57.87
71384;BME280;67558;52.166;5.004;2023-04-04T03:37:17;103123.13;;;2.74;57.72
71384;BME280;67558;52.166;5.004;2023-04-04T03:39:42;103119.13;;;2.70;57.81
71384;BME280;67558;52.166;5.004;2023-04-04T03:42:08;103113.84;;;2.70;58.59
71384;BME280;67558;52.166;5.004;2023-04-04T03:44:33;103123.13;;;2.74;57.99
71384;BME280;67558;52.166;5.004;2023-04-04T03:47:00;103126.09;;;2.71;58.21
71384;BME280;67558;52.166;5.004;2023-04-04T03:49:25;103118.31;;;2.70;58.55
71384;BME280;67558;52.166;5.004;2023-04-04T03:51:51;103124.75;;;2.67;58.09
71384;BME280;67558;52.166;5.004;2023-04-04T03:54:16;103121.72;;;2.62;58.24
71384;BME280;67558;52.166;5.004;2023-04-04T03:56:42;103124.38;;;2.62;59.04
71384;BME280;67558;52.166;5.004;2023-04-04T03:59:07;103121.72;;;2.62;58.65
71384;BME280;67558;52.166;5.004;2023-04-04T04:01:33;103121.72;;;2.62;58.60
71384;BME280;67558;52.166;5.004;2023-04-04T04:03:59;103124.16;;;2.55;58.32
71384;BME280;67558;52.166;5.004;2023-04-04T04:06:25;103124.28;;;2.45;59.20
71384;BME280;67558;52.166;5.004;2023-04-04T04:08:51;103115.97;;;2.40;58.98
71384;BME280;67558;52.166;5.004;2023-04-04T04:11:16;103131.81;;;2.40;58.92
71384;BME280;67558;52.166;5.004;2023-04-04T04:13:42;103130.63;;;2.35;59.23
71384;BME280;67558;52.166;5.004;2023-04-04T04:16:07;103113.63;;;2.19;59.55
71384;BME280;67558;52.166;5.004;2023-04-04T04:18:32;103125.13;;;2.28;59.32
71384;BME280;67558;52.166;5.004;2023-04-04T04:20:58;103130.03;;;2.23;59.31
71384;BME280;67558;52.166;5.004;2023-04-04T04:23:26;103105.97;;;2.08;59.10
71384;BME280;67558;52.166;5.004;2023-04-04T04:25:51;103123.84;;;2.14;59.43
71384;BME280;67558;52.166;5.004;2023-04-04T04:28:17;103124.53;;;2.16;60.02
71384;BME280;67558;52.166;5.004;2023-04-04T04:30:42;103128.84;;;2.17;60.18
71384;BME280;67558;52.166;5.004;2023-04-04T04:33:08;103126.63;;;2.13;60.18
71384;BME280;67558;52.166;5.004;2023-04-04T04:35:37;103128.75;;;2.09;60.59
71384;BME280;67558;52.166;5.004;2023-04-04T04:38:05;103140.75;;;2.03;59.61
71384;BME280;67558;52.166;5.004;2023-04-04T04:40:32;103116.41;;;1.92;59.83
71384;BME280;67558;52.166;5.004;2023-04-04T04:42:57;103121.81;;;1.90;60.26
71384;BME280;67558;52.166;5.004;2023-04-04T04:45:23;103125.16;;;1.92;60.11
71384;BME280;67558;52.166;5.004;2023-04-04T04:47:48;103136.06;;;1.97;60.00
71384;BME280;67558;52.166;5.004;2023-04-04T04:50:14;103136.06;;;1.97;59.80
71384;BME280;67558;52.166;5.004;2023-04-04T04:52:40;103128.47;;;1.94;60.06
71384;BME280;67558;52.166;5.004;2023-04-04T04:55:06;103126.78;;;1.93;59.80
71384;BME280;67558;52.166;5.004;2023-04-04T04:57:32;103129.06;;;1.88;60.17
71384;BME280;67558;52.166;5.004;2023-04-04T05:00:01;103134.13;;;1.81;59.81
71384;BME280;67558;52.166;5.004;2023-04-04T05:02:28;103145.25;;;1.75;60.62
71384;BME280;67558;52.166;5.004;2023-04-04T05:04:54;103149.25;;;1.79;60.93
71384;BME280;67558;52.166;5.004;2023-04-04T05:07:19;103143.31;;;1.77;60.88
71384;BME280;67558;52.166;5.004;2023-04-04T05:09:45;103142.84;;;1.82;60.40
71384;BME280;67558;52.166;5.004;2023-04-04T05:12:10;103129.88;;;1.71;60.30
71384;BME280;67558;52.166;5.004;2023-04-04T05:14:35;103139.38;;;1.81;60.11
71384;BME280;67558;52.166;5.004;2023-04-04T05:17:01;103137.88;;;1.79;60.19
71384;BME280;67558;52.166;5.004;2023-04-04T05:19:27;103134.72;;;1.75;60.67
71384;BME280;67558;52.166;5.004;2023-04-04T05:21:52;103145.41;;;1.74;60.65
71384;BME280;67558;52.166;5.004;2023-04-04T05:24:18;103142.94;;;1.72;60.32
71384;BME280;67558;52.166;5.004;2023-04-04T05:26:44;103141.13;;;1.73;60.64
71384;BME280;67558;52.166;5.004;2023-04-04T05:29:09;103136.63;;;1.83;60.53
71384;BME280;67558;52.166;5.004;2023-04-04T05:31:35;103128.84;;;1.81;60.34
71384;BME280;67558;52.166;5.004;2023-04-04T05:34:00;103131.47;;;1.81;60.91
71384;BME280;67558;52.166;5.004;2023-04-04T05:36:35;103142.56;;;1.85;60.80
71384;BME280;67558;52.166;5.004;2023-04-04T05:39:04;103142.72;;;1.83;60.31
71384;BME280;67558;52.166;5.004;2023-04-04T05:41:30;103148.00;;;1.83;61.03
71384;BME280;67558;52.166;5.004;2023-04-04T05:43:56;103121.66;;;1.74;60.52
71384;BME280;67558;52.166;5.004;2023-04-04T05:46:22;103147.41;;;1.90;60.67
71384;BME280;67558;52.166;5.004;2023-04-04T05:48:47;103156.50;;;1.95;60.69
71384;BME280;67558;52.166;5.004;2023-04-04T05:51:14;103149.13;;;1.99;60.75
71384;BME280;67558;52.166;5.004;2023-04-04T05:53:39;103131.84;;;1.87;60.95
71384;BME280;67558;52.166;5.004;2023-04-04T05:56:05;103144.00;;;1.97;61.07
71384;BME280;67558;52.166;5.004;2023-04-04T05:58:30;103144.81;;;1.98;60.86
71384;BME280;67558;52.166;5.004;2023-04-04T06:00:56;103138.19;;;1.94;61.19
71384;BME280;67558;52.166;5.004;2023-04-04T06:03:21;103139.84;;;1.95;61.24
71384;BME280;67558;52.166;5.004;2023-04-04T06:05:50;103149.28;;;1.97;61.51
71384;BME280;67558;52.166;5.004;2023-04-04T06:08:16;103154.94;;;2.02;61.18
71384;BME280;67558;52.166;5.004;2023-04-04T06:10:42;103144.88;;;2.06;61.04
71384;BME280;67558;52.166;5.004;2023-04-04T06:13:07;103144.44;;;2.11;61.49
71384;BME280;67558;52.166;5.004;2023-04-04T06:15:33;103136.09;;;2.15;60.86
71384;BME280;67558;52.166;5.004;2023-04-04T06:17:58;103151.59;;;2.36;61.22
71384;BME280;67558;52.166;5.004;2023-04-04T06:20:23;103149.06;;;2.53;60.94
71384;BME280;67558;52.166;5.004;2023-04-04T06:22:49;103142.44;;;2.75;61.46
71384;BME280;67558;52.166;5.004;2023-04-04T06:25:14;103133.81;;;2.91;61.08
71384;BME280;67558;52.166;5.004;2023-04-04T06:27:39;103122.50;;;3.15;60.61
71384;BME280;67558;52.166;5.004;2023-04-04T06:30:05;103129.38;;;3.42;60.71
71384;BME280;67558;52.166;5.004;2023-04-04T06:32:31;103130.44;;;3.74;60.36
71384;BME280;67558;52.166;5.004;2023-04-04T06:34:58;103132.16;;;3.99;60.12
71384;BME280;67558;52.166;5.004;2023-04-04T06:37:23;103134.81;;;4.16;59.74
71384;BME280;67558;52.166;5.004;2023-04-04T06:39:49;103140.25;;;4.39;59.60
71384;BME280;67558;52.166;5.004;2023-04-04T06:42:14;103141.06;;;4.56;59.32
71384;BME280;67558;52.166;5.004;2023-04-04T06:44:39;103145.84;;;4.77;58.80
71384;BME280;67558;52.166;5.004;2023-04-04T06:47:05;103153.25;;;4.98;58.53
71384;BME280;67558;52.166;5.004;2023-04-04T06:49:30;103170.59;;;5.25;58.43
71384;BME280;67558;52.166;5.004;2023-04-04T06:51:56;103155.91;;;5.45;57.96
71384;BME280;67558;52.166;5.004;2023-04-04T06:54:22;103152.94;;;5.71;57.52
71384;BME280;67558;52.166;5.004;2023-04-04T06:56:47;103147.50;;;5.96;56.89
71384;BME280;67558;52.166;5.004;2023-04-04T06:59:12;103149.84;;;6.14;56.54
71384;BME280;67558;52.166;5.004;2023-04-04T07:01:38;103157.19;;;6.35;56.11
71384;BME280;67558;52.166;5.004;2023-04-04T07:04:03;103148.38;;;6.49;55.83
71384;BME280;67558;52.166;5.004;2023-04-04T07:06:29;103160.53;;;6.67;55.93
71384;BME280;67558;52.166;5.004;2023-04-04T07:08:55;103157.88;;;6.82;55.67
71384;BME280;67558;52.166;5.004;2023-04-04T07:11:20;103162.56;;;6.94;55.24
71384;BME280;67558;52.166;5.004;2023-04-04T07:13:48;103163.59;;;7.08;55.09
71384;BME280;67558;52.166;5.004;2023-04-04T07:16:13;103154.03;;;7.14;54.42
71384;BME280;67558;52.166;5.004;2023-04-04T07:18:39;103149.00;;;7.19;54.24
71384;BME280;67558;52.166;5.004;2023-04-04T07:21:04;103151.34;;;7.14;54.22
71384;BME280;67558;52.166;5.004;2023-04-04T07:23:31;103162.31;;;7.19;53.81
71384;BME280;67558;52.166;5.004;2023-04-04T07:25:57;103157.63;;;7.21;54.17
71384;BME280;67558;52.166;5.004;2023-04-04T07:28:23;103157.41;;;7.37;53.72
71384;BME280;67558;52.166;5.004;2023-04-04T07:30:48;103152.03;;;7.52;53.41
71384;BME280;67558;52.166;5.004;2023-04-04T07:33:13;103164.06;;;7.63;53.39
71384;BME280;67558;52.166;5.004;2023-04-04T07:35:40;103143.03;;;7.68;52.79
71384;BME280;67558;52.166;5.004;2023-04-04T07:38:06;103154.28;;;7.85;52.77
71384;BME280;67558;52.166;5.004;2023-04-04T07:40:32;103151.16;;;8.03;52.24
71384;BME280;67558;52.166;5.004;2023-04-04T07:42:59;103149.38;;;8.10;52.55
71384;BME280;67558;52.166;5.004;2023-04-04T07:45:25;103103.31;;;7.95;51.79
71384;BME280;67558;52.166;5.004;2023-04-04T07:47:51;103146.53;;;8.40;51.46
71384;BME280;67558;52.166;5.004;2023-04-04T07:50:18;103141.34;;;8.53;51.34
71384;BME280;67558;52.166;5.004;2023-04-04T07:52:48;103145.97;;;8.73;51.04
71384;BME280;67558;52.166;5.004;2023-04-04T07:55:19;103138.50;;;8.90;50.37
71384;BME280;67558;52.166;5.004;2023-04-04T07:57:45;103134.91;;;9.11;50.04
71384;BME280;67558;52.166;5.004;2023-04-04T08:00:12;103135.75;;;9.18;49.75
71384;BME280;67558;52.166;5.004;2023-04-04T08:02:39;103142.38;;;9.29;49.41
71384;BME280;67558;52.166;5.004;2023-04-04T08:05:05;103138.06;;;9.28;49.07
71384;BME280;67558;52.166;5.004;2023-04-04T08:07:31;103138.31;;;9.39;48.66
71384;BME280;67558;52.166;5.004;2023-04-04T08:09:57;103139.56;;;9.43;48.30
71384;BME280;67558;52.166;5.004;2023-04-04T08:12:23;103136.91;;;9.50;48.21
71384;BME280;67558;52.166;5.004;2023-04-04T08:14:49;103086.72;;;9.32;47.63
71384;BME280;67558;52.166;5.004;2023-04-04T08:17:15;103133.44;;;9.63;47.11
71384;BME280;67558;52.166;5.004;2023-04-04T08:19:45;103126.66;;;9.67;46.96
71384;BME280;67558;52.166;5.004;2023-04-04T08:22:13;103130.59;;;9.78;46.83
71384;BME280;67558;52.166;5.004;2023-04-04T08:24:39;103131.22;;;9.93;45.50
71384;BME280;67558;52.166;5.004;2023-04-04T08:27:07;103128.19;;;10.10;45.51
71384;BME280;67558;52.166;5.004;2023-04-04T08:29:33;103130.44;;;10.26;44.33
71384;BME280;67558;52.166;5.004;2023-04-04T08:32:00;103122.66;;;10.38;42.88
71384;BME280;67558;52.166;5.004;2023-04-04T08:34:26;103122.63;;;10.51;41.89
71384;BME280;67558;52.166;5.004;2023-04-04T08:36:52;103117.09;;;10.46;42.24
71384;BME280;67558;52.166;5.004;2023-04-04T08:39:19;103120.19;;;10.50;41.86
71384;BME280;67558;52.166;5.004;2023-04-04T08:41:45;103115.22;;;10.53;41.26
71384;BME280;67558;52.166;5.004;2023-04-04T08:44:15;103113.97;;;10.49;38.72
71384;BME280;67558;52.166;5.004;2023-04-04T08:46:44;103117.91;;;10.47;40.37
71384;BME280;67558;52.166;5.004;2023-04-04T08:49:15;103109.44;;;10.43;40.31
71384;BME280;67558;52.166;5.004;2023-04-04T08:51:42;103111.31;;;10.36;39.77
71384;BME280;67558;52.166;5.004;2023-04-04T08:54:11;103112.94;;;10.23;39.95
71384;BME280;67558;52.166;5.004;2023-04-04T08:56:38;103106.56;;;10.18;39.68
71384;BME280;67558;52.166;5.004;2023-04-04T08:59:04;103117.88;;;10.27;39.49
71384;BME280;67558;52.166;5.004;2023-04-04T09:01:30;103119.97;;;10.31;39.68
71384;BME280;67558;52.166;5.004;2023-04-04T09:03:56;103113.59;;;10.32;38.79
71384;BME280;67558;52.166;5.004;2023-04-04T09:06:23;103106.59;;;10.31;39.08
71384;BME280;67558;52.166;5.004;2023-04-04T09:08:50;103101.00;;;10.19;38.81
71384;BME280;67558;52.166;5.004;2023-04-04T09:11:19;103104.91;;;10.10;38.68
71384;BME280;67558;52.166;5.004;2023-04-04T09:13:46;103115.44;;;10.12;38.98
71384;BME280;67558;52.166;5.004;2023-04-04T09:16:13;103057.19;;;9.67;39.24
71384;BME280;67558;52.166;5.004;2023-04-04T09:18:39;103123.03;;;10.01;39.16
71384;BME280;67558;52.166;5.004;2023-04-04T09:21:09;103107.16;;;9.87;37.78
71384;BME280;67558;52.166;5.004;2023-04-04T09:23:36;103132.28;;;9.86;38.04
71384;BME280;67558;52.166;5.004;2023-04-04T09:26:01;103111.28;;;9.76;37.89
71384;BME280;67558;52.166;5.004;2023-04-04T09:28:27;103119.09;;;9.77;38.27
71384;BME280;67558;52.166;5.004;2023-04-04T09:30:52;103120.53;;;9.73;37.90
71384;BME280;67558;52.166;5.004;2023-04-04T09:33:20;103124.41;;;9.57;37.82
71384;BME280;67558;52.166;5.004;2023-04-04T09:36:06;103117.19;;;9.45;37.50
71384;BME280;67558;52.166;5.004;2023-04-04T09:38:38;103109.50;;;9.28;37.54
71384;BME280;67558;52.166;5.004;2023-04-04T09:41:08;103117.53;;;9.35;37.77
71384;BME280;67558;52.166;5.004;2023-04-04T09:43:35;103113.84;;;9.29;38.35
71384;BME280;67558;52.166;5.004;2023-04-04T09:46:02;103103.94;;;9.23;38.46
71384;BME280;67558;52.166;5.004;2023-04-04T09:48:31;103119.56;;;9.26;38.66
71384;BME280;67558;52.166;5.004;2023-04-04T09:50:58;103101.28;;;9.23;38.67
71384;BME280;67558;52.166;5.004;2023-04-04T09:53:25;103107.63;;;9.22;38.19
71384;BME280;67558;52.166;5.004;2023-04-04T09:55:52;103094.72;;;9.26;38.37
71384;BME280;67558;52.166;5.004;2023-04-04T09:58:25;103101.91;;;9.25;38.25
71384;BME280;67558;52.166;5.004;2023-04-04T10:00:53;103089.56;;;9.24;38.21
71384;BME280;67558;52.166;5.004;2023-04-04T10:03:21;103086.25;;;9.15;38.44
71384;BME280;67558;52.166;5.004;2023-04-04T10:05:54;103092.03;;;9.19;38.21
71384;BME280;67558;52.166;5.004;2023-04-04T10:08:21;103078.84;;;9.17;38.61
71384;BME280;67558;52.166;5.004;2023-04-04T10:10:50;103094.47;;;9.20;37.83
71384;BME280;67558;52.166;5.004;2023-04-04T10:13:30;103093.66;;;9.20;37.54
71384;BME280;67558;52.166;5.004;2023-04-04T10:16:01;103093.66;;;9.20;38.34
71384;BME280;67558;52.166;5.004;2023-04-04T10:18:32;103101.03;;;9.18;37.86
71384;BME280;67558;52.166;5.004;2023-04-04T10:21:00;103104.75;;;9.17;38.27
71384;BME280;67558;52.166;5.004;2023-04-04T10:23:27;103088.09;;;9.15;38.66
71384;BME280;67558;52.166;5.004;2023-04-04T10:25:54;103093.47;;;9.21;38.49
71384;BME280;67558;52.166;5.004;2023-04-04T10:28:20;103078.84;;;9.17;38.96
71384;BME280;67558;52.166;5.004;2023-04-04T10:34:11;103085.91;;;9.32;38.36
71384;BME280;67558;52.166;5.004;2023-04-04T10:37:13;103079.31;;;9.34;38.36
71384;BME280;67558;52.166;5.004;2023-04-04T10:42:41;103076.47;;;9.36;36.74
71384;BME280;67558;52.166;5.004;2023-04-04T10:45:08;103060.81;;;9.33;37.62
71384;BME280;67558;52.166;5.004;2023-04-04T10:47:38;103063.69;;;9.31;37.79
71384;BME280;67558;52.166;5.004;2023-04-04T10:50:04;103064.94;;;9.35;37.44
71384;BME280;67558;52.166;5.004;2023-04-04T10:52:44;103058.16;;;9.39;37.17
71384;BME280;67558;52.166;5.004;2023-04-04T10:55:11;103055.94;;;9.43;37.53
71384;BME280;67558;52.166;5.004;2023-04-04T10:57:40;103058.78;;;9.48;37.42
71384;BME280;67558;52.166;5.004;2023-04-04T11:00:11;103044.44;;;9.49;37.26
71384;BME280;67558;52.166;5.004;2023-04-04T11:05:11;103040.72;;;9.50;36.77
71384;BME280;67558;52.166;5.004;2023-04-04T11:07:39;103051.22;;;9.52;36.80
71384;BME280;67558;52.166;5.004;2023-04-04T11:10:15;103050.41;;;9.51;36.12
71384;BME280;67558;52.166;5.004;2023-04-04T11:12:51;103046.50;;;9.54;35.72
71384;BME280;67558;52.166;5.004;2023-04-04T11:15:20;103030.44;;;9.47;36.41
71384;BME280;67558;52.166;5.004;2023-04-04T11:20:32;103030.03;;;9.63;36.30
71384;BME280;67558;52.166;5.004;2023-04-04T11:23:02;103038.91;;;9.71;36.68
71384;BME280;67558;52.166;5.004;2023-04-04T11:25:36;103031.91;;;9.70;36.84
71384;BME280;67558;52.166;5.004;2023-04-04T11:28:23;103028.59;;;9.74;37.06
71384;BME280;67558;52.166;5.004;2023-04-04T11:34:12;103014.03;;;9.70;37.61
71384;BME280;67558;52.166;5.004;2023-04-04T11:39:08;103000.44;;;9.65;36.68
71384;BME280;67558;52.166;5.004;2023-04-04T11:44:19;103011.97;;;9.79;36.44
71384;BME280;67558;52.166;5.004;2023-04-04T11:46:45;103017.09;;;9.80;36.79
71384;BME280;67558;52.166;5.004;2023-04-04T11:49:12;103017.31;;;9.86;36.71
71384;BME280;67558;52.166;5.004;2023-04-04T11:51:38;103017.94;;;9.88;37.06
71384;BME280;67558;52.166;5.004;2023-04-04T11:54:05;103014.41;;;9.87;36.70
71384;BME280;67558;52.166;5.004;2023-04-04T11:56:41;103006.19;;;9.89;36.92
71384;BME280;67558;52.166;5.004;2023-04-04T11:59:06;102988.13;;;9.84;36.82
71384;BME280;67558;52.166;5.004;2023-04-04T12:01:32;103011.34;;;9.97;36.83
71384;BME280;67558;52.166;5.004;2023-04-04T12:03:59;103003.75;;;9.94;36.95
71384;BME280;67558;52.166;5.004;2023-04-04T12:06:28;102983.19;;;9.88;37.29
71384;BME280;67558;52.166;5.004;2023-04-04T12:08:53;102981.13;;;9.90;37.58
71384;BME280;67558;52.166;5.004;2023-04-04T12:11:19;102982.34;;;10.00;37.50
71384;BME280;67558;52.166;5.004;2023-04-04T12:13:45;102981.50;;;10.00;37.00
71384;BME280;67558;52.166;5.004;2023-04-04T12:16:11;102980.06;;;10.04;37.15
71384;BME280;67558;52.166;5.004;2023-04-04T12:18:36;102963.84;;;9.99;37.01
71384;BME280;67558;52.166;5.004;2023-04-04T12:21:02;102978.63;;;10.08;37.36
71384;BME280;67558;52.166;5.004;2023-04-04T12:23:34;102964.84;;;10.11;37.66
71384;BME280;67558;52.166;5.004;2023-04-04T12:26:00;102968.31;;;10.18;37.49
71384;BME280;67558;52.166;5.004;2023-04-04T12:28:29;102967.88;;;10.21;37.65
71384;BME280;67558;52.166;5.004;2023-04-04T12:30:55;102955.97;;;10.24;37.88
71384;BME280;67558;52.166;5.004;2023-04-04T12:33:21;102955.75;;;10.25;37.95
71384;BME280;67558;52.166;5.004;2023-04-04T12:35:51;102958.00;;;10.29;37.74
71384;BME280;67558;52.166;5.004;2023-04-04T12:38:17;102951.81;;;10.28;37.75
71384;BME280;67558;52.166;5.004;2023-04-04T12:40:45;102943.78;;;10.28;37.71
71384;BME280;67558;52.166;5.004;2023-04-04T12:43:16;102953.06;;;10.32;37.99
71384;BME280;67558;52.166;5.004;2023-04-04T12:45:43;102941.16;;;10.35;38.08
71384;BME280;67558;52.166;5.004;2023-04-04T12:48:10;102945.84;;;10.39;38.25
71384;BME280;67558;52.166;5.004;2023-04-04T12:50:53;102914.81;;;10.32;38.29
71384;BME280;67558;52.166;5.004;2023-04-04T12:53:21;102931.41;;;10.47;38.24
71384;BME280;67558;52.166;5.004;2023-04-04T12:55:48;102932.63;;;10.51;37.81
71384;BME280;67558;52.166;5.004;2023-04-04T12:58:16;102930.97;;;10.57;37.76
71384;BME280;67558;52.166;5.004;2023-04-04T13:00:43;102923.16;;;10.55;37.57
71384;BME280;67558;52.166;5.004;2023-04-04T13:03:11;102914.09;;;10.56;37.66
71384;BME280;67558;52.166;5.004;2023-04-04T13:05:37;102913.22;;;10.62;37.57
71384;BME280;67558;52.166;5.004;2023-04-04T13:08:07;102909.75;;;10.55;37.30
71384;BME280;67558;52.166;5.004;2023-04-04T13:11:03;102912.59;;;10.67;36.70
71384;BME280;67558;52.166;5.004;2023-04-04T13:13:38;102915.69;;;10.64;36.53
71384;BME280;67558;52.166;5.004;2023-04-04T13:16:06;102906.84;;;10.63;36.55
71384;BME280;67558;52.166;5.004;2023-04-04T13:18:42;102907.63;;;10.71;36.08
71384;BME280;67558;52.166;5.004;2023-04-04T13:21:10;102892.00;;;10.68;35.85